sensor_id;sensor_type;location;lat;lon;timestamp;P1;durP1;ratioP1;P2;durP2;ratioP2
40116;SDS011;25829;50.228;18.936;2024-02-23T00:01:00;4.00;;;3.20;;
40116;SDS011;25829;50.228;18.936;2024-02-23T00:04:00;4.30;;;2.80;;
40116;SDS011;25829;50.228;18.936;2024-02-23T00:07:02;3.20;;;2.63;;
40116;SDS011;25829;50.228;18.936;2024-02-23T00:10:03;3.80;;;2.90;;
40116;SDS011;25829;50.228;18.936;2024-02-23T00:13:04;3.23;;;2.83;;
40116;SDS011;25829;50.228;18.936;2024-02-23T00:16:05;3.30;;;2.80;;
40116;SDS011;25829;50.228;18.936;2024-02-23T00:19:07;4.43;;;3.20;;
40116;SDS011;25829;50.228;18.936;2024-02-23T00:22:11;4.30;;;2.60;;
40116;SDS011;25829;50.228;18.936;2024-02-23T00:25:18;3.63;;;2.80;;
40116;SDS011;25829;50.228;18.936;2024-02-23T00:28:19;5.30;;;2.97;;
40116;SDS011;25829;50.228;18.936;2024-02-23T00:31:20;3.17;;;2.60;;
40116;SDS011;25829;50.228;18.936;2024-02-23T00:34:21;3.20;;;2.40;;
40116;SDS011;25829;50.228;18.936;2024-02-23T00:37:22;4.57;;;2.60;;
40116;SDS011;25829;50.228;18.936;2024-02-23T00:40:23;2.60;;;2.37;;
40116;SDS011;25829;50.228;18.936;2024-02-23T00:43:24;3.33;;;2.50;;
40116;SDS011;25829;50.228;18.936;2024-02-23T00:46:25;3.83;;;2.20;;
40116;SDS011;25829;50.228;18.936;2024-02-23T00:49:25;4.83;;;2.93;;
40116;SDS011;25829;50.228;18.936;2024-02-23T00:52:26;2.80;;;2.60;;
40116;SDS011;25829;50.228;18.936;2024-02-23T00:55:27;3.07;;;2.57;;
40116;SDS011;25829;50.228;18.936;2024-02-23T00:58:28;2.90;;;2.60;;
40116;SDS011;25829;50.228;18.936;2024-02-23T01:01:28;2.47;;;2.27;;
40116;SDS011;25829;50.228;18.936;2024-02-23T01:04:29;2.53;;;2.33;;
40116;SDS011;25829;50.228;18.936;2024-02-23T01:07:30;3.47;;;2.90;;
40116;SDS011;25829;50.228;18.936;2024-02-23T01:10:31;2.73;;;2.43;;
40116;SDS011;25829;50.228;18.936;2024-02-23T01:13:32;2.73;;;2.10;;
40116;SDS011;25829;50.228;18.936;2024-02-23T01:16:32;3.23;;;2.80;;
40116;SDS011;25829;50.228;18.936;2024-02-23T01:19:33;2.90;;;2.53;;
40116;SDS011;25829;50.228;18.936;2024-02-23T01:22:37;3.13;;;2.47;;
40116;SDS011;25829;50.228;18.936;2024-02-23T01:25:38;3.17;;;2.50;;
40116;SDS011;25829;50.228;18.936;2024-02-23T01:28:39;2.40;;;2.20;;
40116;SDS011;25829;50.228;18.936;2024-02-23T01:31:40;3.07;;;2.53;;
40116;SDS011;25829;50.228;18.936;2024-02-23T01:34:40;2.83;;;2.33;;
40116;SDS011;25829;50.228;18.936;2024-02-23T01:37:41;3.07;;;2.47;;
40116;SDS011;25829;50.228;18.936;2024-02-23T01:40:42;2.63;;;2.43;;
40116;SDS011;25829;50.228;18.936;2024-02-23T01:43:43;2.90;;;2.60;;
40116;SDS011;25829;50.228;18.936;2024-02-23T01:46:44;3.10;;;2.43;;
40116;SDS011;25829;50.228;18.936;2024-02-23T01:49:45;3.37;;;2.70;;
40116;SDS011;25829;50.228;18.936;2024-02-23T01:52:47;4.73;;;2.03;;
40116;SDS011;25829;50.228;18.936;2024-02-23T01:55:48;3.03;;;2.13;;
40116;SDS011;25829;50.228;18.936;2024-02-23T01:58:50;2.47;;;2.27;;
40116;SDS011;25829;50.228;18.936;2024-02-23T02:01:51;2.50;;;2.30;;
40116;SDS011;25829;50.228;18.936;2024-02-23T02:04:52;2.37;;;2.10;;
40116;SDS011;25829;50.228;18.936;2024-02-23T02:07:53;2.10;;;1.90;;
40116;SDS011;25829;50.228;18.936;2024-02-23T02:10:59;2.17;;;2.00;;
40116;SDS011;25829;50.228;18.936;2024-02-23T02:13:59;3.17;;;2.30;;
40116;SDS011;25829;50.228;18.936;2024-02-23T02:17:00;2.57;;;2.13;;
40116;SDS011;25829;50.228;18.936;2024-02-23T02:20:04;2.87;;;2.10;;
40116;SDS011;25829;50.228;18.936;2024-02-23T02:23:06;2.37;;;1.80;;
40116;SDS011;25829;50.228;18.936;2024-02-23T02:26:07;4.40;;;2.23;;
40116;SDS011;25829;50.228;18.936;2024-02-23T02:29:11;2.17;;;2.00;;
40116;SDS011;25829;50.228;18.936;2024-02-23T02:32:13;2.53;;;2.10;;
40116;SDS011;25829;50.228;18.936;2024-02-23T02:35:14;1.97;;;1.83;;
40116;SDS011;25829;50.228;18.936;2024-02-23T02:38:15;2.30;;;2.10;;
40116;SDS011;25829;50.228;18.936;2024-02-23T02:41:19;1.87;;;1.77;;
40116;SDS011;25829;50.228;18.936;2024-02-23T02:44:22;2.17;;;1.90;;
40116;SDS011;25829;50.228;18.936;2024-02-23T02:47:26;2.27;;;2.07;;
40116;SDS011;25829;50.228;18.936;2024-02-23T02:50:27;2.17;;;1.97;;
40116;SDS011;25829;50.228;18.936;2024-02-23T02:53:30;2.67;;;2.00;;
40116;SDS011;25829;50.228;18.936;2024-02-23T02:56:31;2.20;;;1.90;;
40116;SDS011;25829;50.228;18.936;2024-02-23T02:59:38;2.17;;;1.97;;
40116;SDS011;25829;50.228;18.936;2024-02-23T03:02:42;2.97;;;2.07;;
40116;SDS011;25829;50.228;18.936;2024-02-23T03:05:43;2.40;;;2.20;;
40116;SDS011;25829;50.228;18.936;2024-02-23T03:08:43;2.33;;;2.10;;
40116;SDS011;25829;50.228;18.936;2024-02-23T03:11:47;3.73;;;2.37;;
40116;SDS011;25829;50.228;18.936;2024-02-23T03:14:49;3.57;;;2.20;;
40116;SDS011;25829;50.228;18.936;2024-02-23T03:35:57;2.73;;;2.10;;
40116;SDS011;25829;50.228;18.936;2024-02-23T03:38:58;2.30;;;2.10;;
40116;SDS011;25829;50.228;18.936;2024-02-23T03:42:02;2.30;;;2.10;;
40116;SDS011;25829;50.228;18.936;2024-02-23T03:45:04;2.13;;;1.93;;
40116;SDS011;25829;50.228;18.936;2024-02-23T03:48:05;2.10;;;1.90;;
40116;SDS011;25829;50.228;18.936;2024-02-23T04:03:54;3.93;;;2.37;;
40116;SDS011;25829;50.228;18.936;2024-02-23T04:06:55;2.57;;;2.00;;
40116;SDS011;25829;50.228;18.936;2024-02-23T04:09:58;2.17;;;1.93;;
40116;SDS011;25829;50.228;18.936;2024-02-23T04:13:02;2.43;;;2.20;;
40116;SDS011;25829;50.228;18.936;2024-02-23T04:16:03;3.07;;;2.03;;
40116;SDS011;25829;50.228;18.936;2024-02-23T04:19:04;2.17;;;1.97;;
40116;SDS011;25829;50.228;18.936;2024-02-23T04:22:05;2.87;;;2.20;;
40116;SDS011;25829;50.228;18.936;2024-02-23T04:25:10;2.60;;;1.73;;
40116;SDS011;25829;50.228;18.936;2024-02-23T04:28:10;1.70;;;1.60;;
40116;SDS011;25829;50.228;18.936;2024-02-23T04:31:11;2.93;;;1.90;;
40116;SDS011;25829;50.228;18.936;2024-02-23T04:34:18;2.73;;;2.00;;
40116;SDS011;25829;50.228;18.936;2024-02-23T04:37:21;2.00;;;1.90;;
40116;SDS011;25829;50.228;18.936;2024-02-23T04:40:22;2.20;;;1.80;;
40116;SDS011;25829;50.228;18.936;2024-02-23T04:43:23;2.20;;;2.00;;
40116;SDS011;25829;50.228;18.936;2024-02-23T04:46:30;2.03;;;1.80;;
40116;SDS011;25829;50.228;18.936;2024-02-23T04:49:43;2.20;;;2.00;;
40116;SDS011;25829;50.228;18.936;2024-02-23T04:52:44;2.50;;;2.13;;
40116;SDS011;25829;50.228;18.936;2024-02-23T04:55:45;2.20;;;2.00;;
40116;SDS011;25829;50.228;18.936;2024-02-23T04:58:45;2.00;;;1.80;;
40116;SDS011;25829;50.228;18.936;2024-02-23T05:01:47;3.57;;;2.10;;
40116;SDS011;25829;50.228;18.936;2024-02-23T05:04:49;2.87;;;2.10;;
40116;SDS011;25829;50.228;18.936;2024-02-23T05:07:50;2.73;;;2.03;;
40116;SDS011;25829;50.228;18.936;2024-02-23T05:10:51;2.37;;;2.17;;
40116;SDS011;25829;50.228;18.936;2024-02-23T05:13:52;2.50;;;2.13;;
40116;SDS011;25829;50.228;18.936;2024-02-23T05:16:53;2.90;;;2.40;;
40116;SDS011;25829;50.228;18.936;2024-02-23T05:19:54;2.27;;;2.07;;
40116;SDS011;25829;50.228;18.936;2024-02-23T05:22:54;3.33;;;2.47;;
40116;SDS011;25829;50.228;18.936;2024-02-23T05:25:55;3.87;;;2.40;;
40116;SDS011;25829;50.228;18.936;2024-02-23T05:28:56;3.03;;;2.60;;
40116;SDS011;25829;50.228;18.936;2024-02-23T05:31:56;3.23;;;2.50;;
40116;SDS011;25829;50.228;18.936;2024-02-23T05:34:57;3.27;;;2.70;;
40116;SDS011;25829;50.228;18.936;2024-02-23T05:37:58;3.63;;;2.53;;
40116;SDS011;25829;50.228;18.936;2024-02-23T05:40:59;3.00;;;2.20;;
40116;SDS011;25829;50.228;18.936;2024-02-23T05:44:03;2.60;;;2.40;;
40116;SDS011;25829;50.228;18.936;2024-02-23T05:47:05;3.23;;;2.27;;
40116;SDS011;25829;50.228;18.936;2024-02-23T05:50:07;3.20;;;2.40;;
40116;SDS011;25829;50.228;18.936;2024-02-23T05:53:09;2.67;;;2.20;;
40116;SDS011;25829;50.228;18.936;2024-02-23T05:56:10;2.83;;;2.20;;
40116;SDS011;25829;50.228;18.936;2024-02-23T05:59:11;4.67;;;2.60;;
40116;SDS011;25829;50.228;18.936;2024-02-23T06:02:13;2.37;;;1.80;;
40116;SDS011;25829;50.228;18.936;2024-02-23T06:05:13;3.27;;;2.33;;
40116;SDS011;25829;50.228;18.936;2024-02-23T06:08:14;3.10;;;2.30;;
40116;SDS011;25829;50.228;18.936;2024-02-23T06:11:15;3.60;;;2.00;;
40116;SDS011;25829;50.228;18.936;2024-02-23T06:14:16;2.87;;;2.13;;
40116;SDS011;25829;50.228;18.936;2024-02-23T06:17:17;2.43;;;2.10;;
40116;SDS011;25829;50.228;18.936;2024-02-23T06:20:18;2.67;;;2.00;;
40116;SDS011;25829;50.228;18.936;2024-02-23T06:23:26;2.30;;;2.10;;
40116;SDS011;25829;50.228;18.936;2024-02-23T06:26:27;2.67;;;1.97;;
40116;SDS011;25829;50.228;18.936;2024-02-23T06:29:28;2.77;;;2.17;;
40116;SDS011;25829;50.228;18.936;2024-02-23T06:32:29;2.13;;;1.93;;
40116;SDS011;25829;50.228;18.936;2024-02-23T06:35:32;3.03;;;2.37;;
40116;SDS011;25829;50.228;18.936;2024-02-23T06:38:36;2.27;;;2.07;;
40116;SDS011;25829;50.228;18.936;2024-02-23T06:41:37;2.77;;;2.20;;
40116;SDS011;25829;50.228;18.936;2024-02-23T06:44:41;3.10;;;2.40;;
40116;SDS011;25829;50.228;18.936;2024-02-23T06:47:49;2.93;;;2.50;;
40116;SDS011;25829;50.228;18.936;2024-02-23T06:50:50;4.13;;;2.70;;
40116;SDS011;25829;50.228;18.936;2024-02-23T06:56:54;5.20;;;3.10;;
40116;SDS011;25829;50.228;18.936;2024-02-23T06:59:55;5.47;;;2.90;;
40116;SDS011;25829;50.228;18.936;2024-02-23T07:02:55;6.43;;;4.10;;
40116;SDS011;25829;50.228;18.936;2024-02-23T07:05:59;5.23;;;3.20;;
40116;SDS011;25829;50.228;18.936;2024-02-23T07:08:59;5.03;;;2.77;;
40116;SDS011;25829;50.228;18.936;2024-02-23T07:12:00;4.83;;;2.80;;
40116;SDS011;25829;50.228;18.936;2024-02-23T07:15:01;3.47;;;2.83;;
40116;SDS011;25829;50.228;18.936;2024-02-23T07:18:02;5.27;;;3.07;;
40116;SDS011;25829;50.228;18.936;2024-02-23T07:21:03;5.30;;;2.87;;
40116;SDS011;25829;50.228;18.936;2024-02-23T07:24:04;4.43;;;2.93;;
40116;SDS011;25829;50.228;18.936;2024-02-23T07:27:05;3.10;;;2.77;;
40116;SDS011;25829;50.228;18.936;2024-02-23T07:30:06;4.63;;;2.70;;
40116;SDS011;25829;50.228;18.936;2024-02-23T07:33:08;4.57;;;3.00;;
40116;SDS011;25829;50.228;18.936;2024-02-23T07:36:13;7.07;;;2.83;;
40116;SDS011;25829;50.228;18.936;2024-02-23T07:39:17;5.40;;;3.20;;
40116;SDS011;25829;50.228;18.936;2024-02-23T07:42:18;3.70;;;2.87;;
40116;SDS011;25829;50.228;18.936;2024-02-23T07:45:19;3.13;;;2.43;;
40116;SDS011;25829;50.228;18.936;2024-02-23T07:48:19;3.93;;;3.20;;
40116;SDS011;25829;50.228;18.936;2024-02-23T07:51:23;3.97;;;3.33;;
40116;SDS011;25829;50.228;18.936;2024-02-23T07:54:27;4.53;;;3.30;;
40116;SDS011;25829;50.228;18.936;2024-02-23T07:57:28;5.37;;;3.50;;
40116;SDS011;25829;50.228;18.936;2024-02-23T08:00:29;4.10;;;3.23;;
40116;SDS011;25829;50.228;18.936;2024-02-23T08:03:29;4.73;;;3.67;;
40116;SDS011;25829;50.228;18.936;2024-02-23T08:06:30;6.03;;;3.37;;
40116;SDS011;25829;50.228;18.936;2024-02-23T08:09:37;4.83;;;3.77;;
40116;SDS011;25829;50.228;18.936;2024-02-23T08:12:38;5.53;;;3.87;;
40116;SDS011;25829;50.228;18.936;2024-02-23T08:15:40;5.07;;;3.73;;
40116;SDS011;25829;50.228;18.936;2024-02-23T08:18:40;5.33;;;4.23;;
40116;SDS011;25829;50.228;18.936;2024-02-23T08:21:41;6.83;;;4.17;;
40116;SDS011;25829;50.228;18.936;2024-02-23T08:24:44;6.23;;;4.00;;
40116;SDS011;25829;50.228;18.936;2024-02-23T08:27:44;4.60;;;3.53;;
40116;SDS011;25829;50.228;18.936;2024-02-23T08:30:45;5.83;;;4.17;;
40116;SDS011;25829;50.228;18.936;2024-02-23T08:33:46;7.20;;;4.57;;
40116;SDS011;25829;50.228;18.936;2024-02-23T08:36:47;5.97;;;4.43;;
40116;SDS011;25829;50.228;18.936;2024-02-23T08:39:48;6.17;;;4.17;;
40116;SDS011;25829;50.228;18.936;2024-02-23T08:42:49;5.87;;;3.83;;
40116;SDS011;25829;50.228;18.936;2024-02-23T08:45:50;5.80;;;3.97;;
40116;SDS011;25829;50.228;18.936;2024-02-23T08:48:51;5.80;;;3.90;;
40116;SDS011;25829;50.228;18.936;2024-02-23T08:51:52;5.00;;;3.67;;
40116;SDS011;25829;50.228;18.936;2024-02-23T08:54:53;4.03;;;3.03;;
40116;SDS011;25829;50.228;18.936;2024-02-23T08:57:54;3.73;;;2.93;;
40116;SDS011;25829;50.228;18.936;2024-02-23T09:00:54;4.40;;;3.50;;
40116;SDS011;25829;50.228;18.936;2024-02-23T09:03:55;5.30;;;3.10;;
40116;SDS011;25829;50.228;18.936;2024-02-23T09:06:56;4.53;;;3.80;;
40116;SDS011;25829;50.228;18.936;2024-02-23T09:09:56;5.03;;;3.77;;
40116;SDS011;25829;50.228;18.936;2024-02-23T09:12:57;5.00;;;3.60;;
40116;SDS011;25829;50.228;18.936;2024-02-23T09:15:58;7.37;;;4.23;;
40116;SDS011;25829;50.228;18.936;2024-02-23T09:18:59;6.53;;;4.67;;
40116;SDS011;25829;50.228;18.936;2024-02-23T09:22:00;7.27;;;5.20;;
40116;SDS011;25829;50.228;18.936;2024-02-23T09:25:02;8.03;;;5.17;;
40116;SDS011;25829;50.228;18.936;2024-02-23T09:28:03;8.43;;;6.57;;
40116;SDS011;25829;50.228;18.936;2024-02-23T09:31:04;8.70;;;6.57;;
40116;SDS011;25829;50.228;18.936;2024-02-23T09:34:05;9.00;;;6.93;;
40116;SDS011;25829;50.228;18.936;2024-02-23T09:37:05;8.90;;;5.80;;
40116;SDS011;25829;50.228;18.936;2024-02-23T09:40:06;8.07;;;6.20;;
40116;SDS011;25829;50.228;18.936;2024-02-23T09:43:07;9.30;;;6.50;;
40116;SDS011;25829;50.228;18.936;2024-02-23T09:46:09;6.40;;;5.57;;
40116;SDS011;25829;50.228;18.936;2024-02-23T09:49:11;9.23;;;5.30;;
40116;SDS011;25829;50.228;18.936;2024-02-23T09:52:12;7.13;;;4.73;;
40116;SDS011;25829;50.228;18.936;2024-02-23T09:55:13;9.80;;;5.43;;
40116;SDS011;25829;50.228;18.936;2024-02-23T09:58:14;4.20;;;3.63;;
40116;SDS011;25829;50.228;18.936;2024-02-23T10:01:28;4.10;;;3.70;;
40116;SDS011;25829;50.228;18.936;2024-02-23T10:04:31;4.43;;;3.73;;
40116;SDS011;25829;50.228;18.936;2024-02-23T10:10:57;4.93;;;3.30;;
40116;SDS011;25829;50.228;18.936;2024-02-23T10:13:58;5.20;;;3.60;;
40116;SDS011;25829;50.228;18.936;2024-02-23T10:16:59;5.73;;;3.60;;
40116;SDS011;25829;50.228;18.936;2024-02-23T10:20:02;5.87;;;3.97;;
40116;SDS011;25829;50.228;18.936;2024-02-23T10:23:07;4.27;;;3.40;;
40116;SDS011;25829;50.228;18.936;2024-02-23T10:26:12;4.70;;;3.10;;
40116;SDS011;25829;50.228;18.936;2024-02-23T10:29:13;4.57;;;2.57;;
40116;SDS011;25829;50.228;18.936;2024-02-23T10:32:14;4.40;;;2.70;;
40116;SDS011;25829;50.228;18.936;2024-02-23T10:35:16;3.33;;;2.73;;
40116;SDS011;25829;50.228;18.936;2024-02-23T10:38:21;3.87;;;2.73;;
40116;SDS011;25829;50.228;18.936;2024-02-23T10:41:29;3.33;;;2.60;;
40116;SDS011;25829;50.228;18.936;2024-02-23T10:44:35;4.53;;;2.63;;
40116;SDS011;25829;50.228;18.936;2024-02-23T10:47:37;3.80;;;2.70;;
40116;SDS011;25829;50.228;18.936;2024-02-23T10:50:38;4.23;;;2.93;;
40116;SDS011;25829;50.228;18.936;2024-02-23T10:53:46;4.17;;;2.90;;
40116;SDS011;25829;50.228;18.936;2024-02-23T10:56:50;2.97;;;2.40;;
40116;SDS011;25829;50.228;18.936;2024-02-23T10:59:51;4.00;;;2.77;;
40116;SDS011;25829;50.228;18.936;2024-02-23T11:02:52;2.73;;;2.30;;
40116;SDS011;25829;50.228;18.936;2024-02-23T11:05:55;3.13;;;2.50;;
40116;SDS011;25829;50.228;18.936;2024-02-23T11:09:08;3.40;;;2.23;;
40116;SDS011;25829;50.228;18.936;2024-02-23T11:12:21;3.90;;;2.30;;
40116;SDS011;25829;50.228;18.936;2024-02-23T11:15:28;3.47;;;2.50;;
40116;SDS011;25829;50.228;18.936;2024-02-23T11:18:30;3.30;;;2.60;;
40116;SDS011;25829;50.228;18.936;2024-02-23T11:21:35;4.30;;;3.10;;
40116;SDS011;25829;50.228;18.936;2024-02-23T11:24:42;3.63;;;2.80;;
40116;SDS011;25829;50.228;18.936;2024-02-23T11:27:44;3.33;;;2.67;;
40116;SDS011;25829;50.228;18.936;2024-02-23T11:30:50;4.90;;;3.53;;
40116;SDS011;25829;50.228;18.936;2024-02-23T11:33:53;4.27;;;3.53;;
40116;SDS011;25829;50.228;18.936;2024-02-23T11:36:55;4.33;;;3.40;;
40116;SDS011;25829;50.228;18.936;2024-02-23T11:39:56;4.57;;;3.00;;
40116;SDS011;25829;50.228;18.936;2024-02-23T11:42:58;4.07;;;3.20;;
40116;SDS011;25829;50.228;18.936;2024-02-23T11:46:02;5.23;;;3.70;;
40116;SDS011;25829;50.228;18.936;2024-02-23T11:49:03;7.10;;;4.03;;
40116;SDS011;25829;50.228;18.936;2024-02-23T11:52:03;6.17;;;4.30;;
40116;SDS011;25829;50.228;18.936;2024-02-23T11:55:05;5.13;;;4.00;;
40116;SDS011;25829;50.228;18.936;2024-02-23T11:58:07;5.67;;;3.70;;
40116;SDS011;25829;50.228;18.936;2024-02-23T12:01:07;3.93;;;3.50;;
40116;SDS011;25829;50.228;18.936;2024-02-23T12:04:08;3.87;;;3.33;;
40116;SDS011;25829;50.228;18.936;2024-02-23T12:07:09;4.93;;;3.47;;
40116;SDS011;25829;50.228;18.936;2024-02-23T12:10:10;5.97;;;3.73;;
40116;SDS011;25829;50.228;18.936;2024-02-23T12:13:11;5.13;;;3.03;;
40116;SDS011;25829;50.228;18.936;2024-02-23T12:16:12;4.77;;;3.73;;
40116;SDS011;25829;50.228;18.936;2024-02-23T12:19:12;6.97;;;4.20;;
40116;SDS011;25829;50.228;18.936;2024-02-23T12:22:15;4.87;;;3.60;;
40116;SDS011;25829;50.228;18.936;2024-02-23T12:25:16;4.83;;;3.90;;
40116;SDS011;25829;50.228;18.936;2024-02-23T12:28:28;6.80;;;4.53;;
40116;SDS011;25829;50.228;18.936;2024-02-23T12:31:31;5.93;;;4.20;;
40116;SDS011;25829;50.228;18.936;2024-02-23T12:34:38;5.30;;;4.00;;
40116;SDS011;25829;50.228;18.936;2024-02-23T12:37:39;5.63;;;3.97;;
40116;SDS011;25829;50.228;18.936;2024-02-23T12:40:41;4.40;;;3.60;;
40116;SDS011;25829;50.228;18.936;2024-02-23T12:43:42;6.77;;;4.20;;
40116;SDS011;25829;50.228;18.936;2024-02-23T12:46:43;5.50;;;3.77;;
40116;SDS011;25829;50.228;18.936;2024-02-23T12:49:43;5.33;;;4.00;;
40116;SDS011;25829;50.228;18.936;2024-02-23T12:52:44;8.10;;;4.50;;
40116;SDS011;25829;50.228;18.936;2024-02-23T12:55:46;5.77;;;4.00;;
40116;SDS011;25829;50.228;18.936;2024-02-23T12:58:47;5.10;;;4.50;;
40116;SDS011;25829;50.228;18.936;2024-02-23T13:01:48;5.37;;;3.87;;
40116;SDS011;25829;50.228;18.936;2024-02-23T13:04:49;7.07;;;4.70;;
40116;SDS011;25829;50.228;18.936;2024-02-23T13:07:50;6.90;;;4.67;;
40116;SDS011;25829;50.228;18.936;2024-02-23T13:10:51;5.90;;;4.10;;
40116;SDS011;25829;50.228;18.936;2024-02-23T13:13:52;7.40;;;4.63;;
40116;SDS011;25829;50.228;18.936;2024-02-23T13:16:53;8.18;;;4.57;;
40116;SDS011;25829;50.228;18.936;2024-02-23T13:19:54;6.60;;;4.23;;
40116;SDS011;25829;50.228;18.936;2024-02-23T13:22:55;7.03;;;4.90;;
40116;SDS011;25829;50.228;18.936;2024-02-23T13:25:56;8.55;;;4.68;;
40116;SDS011;25829;50.228;18.936;2024-02-23T13:28:57;7.60;;;3.90;;
40116;SDS011;25829;50.228;18.936;2024-02-23T13:31:57;6.50;;;4.60;;
40116;SDS011;25829;50.228;18.936;2024-02-23T13:34:58;8.50;;;3.90;;
40116;SDS011;25829;50.228;18.936;2024-02-23T13:37:59;5.33;;;4.10;;
40116;SDS011;25829;50.228;18.936;2024-02-23T13:41:00;5.38;;;3.92;;
40116;SDS011;25829;50.228;18.936;2024-02-23T13:44:00;5.25;;;4.43;;
40116;SDS011;25829;50.228;18.936;2024-02-23T13:47:01;5.43;;;3.60;;
40116;SDS011;25829;50.228;18.936;2024-02-23T13:50:02;6.30;;;4.73;;
40116;SDS011;25829;50.228;18.936;2024-02-23T13:53:03;4.63;;;4.10;;
40116;SDS011;25829;50.228;18.936;2024-02-23T13:56:04;6.80;;;4.03;;
40116;SDS011;25829;50.228;18.936;2024-02-23T13:59:05;5.60;;;4.20;;
40116;SDS011;25829;50.228;18.936;2024-02-23T14:02:06;6.70;;;4.50;;
40116;SDS011;25829;50.228;18.936;2024-02-23T14:05:08;5.33;;;3.87;;
40116;SDS011;25829;50.228;18.936;2024-02-23T14:08:11;6.53;;;4.20;;
40116;SDS011;25829;50.228;18.936;2024-02-23T14:11:12;5.53;;;3.70;;
40116;SDS011;25829;50.228;18.936;2024-02-23T14:14:20;5.03;;;3.17;;
40116;SDS011;25829;50.228;18.936;2024-02-23T14:17:23;6.20;;;3.30;;
40116;SDS011;25829;50.228;18.936;2024-02-23T14:20:33;4.63;;;3.33;;
40116;SDS011;25829;50.228;18.936;2024-02-23T14:23:34;5.30;;;3.37;;
40116;SDS011;25829;50.228;18.936;2024-02-23T14:26:35;5.13;;;3.80;;
40116;SDS011;25829;50.228;18.936;2024-02-23T14:29:45;7.07;;;5.00;;
40116;SDS011;25829;50.228;18.936;2024-02-23T14:32:47;6.33;;;4.60;;
40116;SDS011;25829;50.228;18.936;2024-02-23T14:35:48;7.50;;;5.00;;
40116;SDS011;25829;50.228;18.936;2024-02-23T14:38:49;6.60;;;4.47;;
40116;SDS011;25829;50.228;18.936;2024-02-23T14:41:50;6.17;;;4.83;;
40116;SDS011;25829;50.228;18.936;2024-02-23T14:44:51;7.87;;;5.63;;
40116;SDS011;25829;50.228;18.936;2024-02-23T14:47:54;7.10;;;4.93;;
40116;SDS011;25829;50.228;18.936;2024-02-23T14:50:55;6.03;;;4.20;;
40116;SDS011;25829;50.228;18.936;2024-02-23T14:54:04;7.00;;;4.27;;
40116;SDS011;25829;50.228;18.936;2024-02-23T14:57:14;11.30;;;6.77;;
40116;SDS011;25829;50.228;18.936;2024-02-23T15:00:17;13.13;;;7.20;;
40116;SDS011;25829;50.228;18.936;2024-02-23T15:03:18;13.73;;;7.63;;
40116;SDS011;25829;50.228;18.936;2024-02-23T15:06:19;16.40;;;9.13;;
40116;SDS011;25829;50.228;18.936;2024-02-23T15:09:23;8.33;;;4.60;;
40116;SDS011;25829;50.228;18.936;2024-02-23T15:12:29;5.23;;;4.27;;
40116;SDS011;25829;50.228;18.936;2024-02-23T15:15:31;7.40;;;4.87;;
40116;SDS011;25829;50.228;18.936;2024-02-23T15:18:31;9.80;;;6.67;;
40116;SDS011;25829;50.228;18.936;2024-02-23T15:21:41;9.60;;;7.00;;
40116;SDS011;25829;50.228;18.936;2024-02-23T15:24:48;10.97;;;6.83;;
40116;SDS011;25829;50.228;18.936;2024-02-23T15:27:52;9.87;;;5.50;;
40116;SDS011;25829;50.228;18.936;2024-02-23T15:30:57;6.53;;;4.87;;
40116;SDS011;25829;50.228;18.936;2024-02-23T15:33:58;6.70;;;5.40;;
40116;SDS011;25829;50.228;18.936;2024-02-23T15:37:00;10.77;;;6.93;;
40116;SDS011;25829;50.228;18.936;2024-02-23T15:40:01;11.30;;;6.73;;
40116;SDS011;25829;50.228;18.936;2024-02-23T15:43:04;13.83;;;7.87;;
40116;SDS011;25829;50.228;18.936;2024-02-23T15:46:04;7.97;;;5.80;;
40116;SDS011;25829;50.228;18.936;2024-02-23T15:49:05;7.80;;;5.20;;
40116;SDS011;25829;50.228;18.936;2024-02-23T15:52:06;6.70;;;5.60;;
40116;SDS011;25829;50.228;18.936;2024-02-23T15:55:07;9.27;;;6.30;;
40116;SDS011;25829;50.228;18.936;2024-02-23T15:58:11;7.57;;;5.73;;
40116;SDS011;25829;50.228;18.936;2024-02-23T16:01:15;8.00;;;5.77;;
40116;SDS011;25829;50.228;18.936;2024-02-23T16:04:16;8.57;;;6.40;;
40116;SDS011;25829;50.228;18.936;2024-02-23T16:07:17;9.30;;;6.63;;
40116;SDS011;25829;50.228;18.936;2024-02-23T16:10:17;8.20;;;6.60;;
40116;SDS011;25829;50.228;18.936;2024-02-23T16:13:18;10.23;;;6.90;;
40116;SDS011;25829;50.228;18.936;2024-02-23T16:16:19;9.97;;;6.80;;
40116;SDS011;25829;50.228;18.936;2024-02-23T16:19:20;10.17;;;6.97;;
40116;SDS011;25829;50.228;18.936;2024-02-23T16:22:21;15.20;;;8.50;;
40116;SDS011;25829;50.228;18.936;2024-02-23T16:25:23;11.63;;;8.57;;
40116;SDS011;25829;50.228;18.936;2024-02-23T16:28:27;13.17;;;8.03;;
40116;SDS011;25829;50.228;18.936;2024-02-23T16:31:28;7.53;;;6.33;;
40116;SDS011;25829;50.228;18.936;2024-02-23T16:34:29;11.63;;;7.30;;
40116;SDS011;25829;50.228;18.936;2024-02-23T16:37:31;6.83;;;5.30;;
40116;SDS011;25829;50.228;18.936;2024-02-23T16:40:33;7.90;;;5.70;;
40116;SDS011;25829;50.228;18.936;2024-02-23T16:43:34;7.23;;;6.20;;
40116;SDS011;25829;50.228;18.936;2024-02-23T16:46:34;8.37;;;6.40;;
40116;SDS011;25829;50.228;18.936;2024-02-23T16:49:35;12.20;;;7.97;;
40116;SDS011;25829;50.228;18.936;2024-02-23T16:52:36;14.87;;;9.47;;
40116;SDS011;25829;50.228;18.936;2024-02-23T16:55:36;14.23;;;7.87;;
40116;SDS011;25829;50.228;18.936;2024-02-23T16:58:37;14.60;;;8.73;;
40116;SDS011;25829;50.228;18.936;2024-02-23T17:01:38;12.20;;;8.63;;
40116;SDS011;25829;50.228;18.936;2024-02-23T17:04:39;14.03;;;8.60;;
40116;SDS011;25829;50.228;18.936;2024-02-23T17:07:40;12.60;;;7.97;;
40116;SDS011;25829;50.228;18.936;2024-02-23T17:10:50;14.40;;;9.00;;
40116;SDS011;25829;50.228;18.936;2024-02-23T17:13:50;18.47;;;9.33;;
40116;SDS011;25829;50.228;18.936;2024-02-23T17:16:57;13.60;;;9.67;;
40116;SDS011;25829;50.228;18.936;2024-02-23T17:27:01;15.80;;;10.23;;
40116;SDS011;25829;50.228;18.936;2024-02-23T17:30:05;15.93;;;9.60;;
40116;SDS011;25829;50.228;18.936;2024-02-23T17:36:33;16.10;;;9.83;;
40116;SDS011;25829;50.228;18.936;2024-02-23T17:49:28;16.00;;;10.73;;
40116;SDS011;25829;50.228;18.936;2024-02-23T17:52:28;14.77;;;10.03;;
40116;SDS011;25829;50.228;18.936;2024-02-23T17:55:35;15.77;;;10.47;;
40116;SDS011;25829;50.228;18.936;2024-02-23T17:58:36;12.57;;;9.83;;
40116;SDS011;25829;50.228;18.936;2024-02-23T18:01:37;15.50;;;10.07;;
40116;SDS011;25829;50.228;18.936;2024-02-23T18:04:38;16.07;;;10.13;;
40116;SDS011;25829;50.228;18.936;2024-02-23T18:07:43;14.47;;;9.77;;
40116;SDS011;25829;50.228;18.936;2024-02-23T18:10:46;14.33;;;9.97;;
40116;SDS011;25829;50.228;18.936;2024-02-23T18:13:50;16.83;;;10.33;;
40116;SDS011;25829;50.228;18.936;2024-02-23T18:16:58;13.03;;;9.67;;
40116;SDS011;25829;50.228;18.936;2024-02-23T18:23:23;13.93;;;9.30;;
40116;SDS011;25829;50.228;18.936;2024-02-23T18:30:29;14.00;;;9.80;;
40116;SDS011;25829;50.228;18.936;2024-02-23T18:36:55;16.03;;;10.40;;
40116;SDS011;25829;50.228;18.936;2024-02-23T18:39:56;12.53;;;8.80;;
40116;SDS011;25829;50.228;18.936;2024-02-23T18:43:08;14.77;;;9.07;;
40116;SDS011;25829;50.228;18.936;2024-02-23T18:46:09;12.20;;;9.03;;
40116;SDS011;25829;50.228;18.936;2024-02-23T18:49:14;14.83;;;9.17;;
40116;SDS011;25829;50.228;18.936;2024-02-23T18:52:15;13.23;;;9.50;;
40116;SDS011;25829;50.228;18.936;2024-02-23T18:55:16;12.63;;;9.10;;
40116;SDS011;25829;50.228;18.936;2024-02-23T18:58:20;12.87;;;9.60;;
40116;SDS011;25829;50.228;18.936;2024-02-23T19:01:21;13.23;;;9.80;;
40116;SDS011;25829;50.228;18.936;2024-02-23T19:04:28;15.80;;;9.87;;
40116;SDS011;25829;50.228;18.936;2024-02-23T19:07:30;15.00;;;10.37;;